createdAt,value
2023-03-02T00:02:06.000Z,33.8
2023-03-02T00:05:34.000Z,35
2023-03-02T00:09:02.000Z,37.5
2023-03-02T00:12:30.000Z,50.6
2023-03-02T00:15:58.000Z,41.2
2023-03-02T00:19:26.000Z,35.7
2023-03-02T00:22:15.000Z,33.4
2023-03-02T00:25:43.000Z,30.4
2023-03-02T00:29:11.000Z,34
2023-03-02T00:32:39.000Z,29
2023-03-02T00:36:07.000Z,41.2
2023-03-02T00:39:35.000Z,39.3
2023-03-02T00:43:03.000Z,42.3
2023-03-02T00:46:31.000Z,35.1
2023-03-02T00:49:59.000Z,36.8
2023-03-02T00:53:27.000Z,38.2
2023-03-02T00:56:55.000Z,31.1
2023-03-02T00:59:44.000Z,32.9
2023-03-02T01:03:15.000Z,27.8
2023-03-02T01:06:43.000Z,27.5
2023-03-02T01:10:10.000Z,29.1
2023-03-02T01:13:38.000Z,27.8
2023-03-02T01:17:06.000Z,30.4
2023-03-02T01:20:34.000Z,29.2
2023-03-02T01:24:02.000Z,26.8
2023-03-02T01:27:30.000Z,27.9
2023-03-02T01:30:58.000Z,27.5
2023-03-02T01:34:26.000Z,26.8
2023-03-02T01:40:40.000Z,33.6
2023-03-02T01:44:08.000Z,29.1
2023-03-02T01:47:36.000Z,30.1
2023-03-02T01:51:04.000Z,26.4
2023-03-02T01:54:32.000Z,28.2
2023-03-02T01:58:00.000Z,27.8
2023-03-02T02:01:28.000Z,28.9
2023-03-02T02:04:56.000Z,34.1
2023-03-02T02:08:24.000Z,29.1
2023-03-02T02:11:51.000Z,31.3
2023-03-02T02:15:19.000Z,35.6
2023-03-02T02:18:09.000Z,29.7
2023-03-02T02:21:37.000Z,25.4
2023-03-02T02:25:05.000Z,29.2
2023-03-02T02:28:32.000Z,27.6
2023-03-02T02:32:00.000Z,27.6
2023-03-02T02:35:29.000Z,25.5
2023-03-02T02:38:57.000Z,27.2
2023-03-02T02:42:25.000Z,29
2023-03-02T02:45:53.000Z,25.5
2023-03-02T02:49:21.000Z,28.6
2023-03-02T02:52:49.000Z,25.8
2023-03-02T02:55:38.000Z,32.7
2023-03-02T02:59:06.000Z,24.9
2023-03-02T03:02:34.000Z,26.4
2023-03-02T03:06:02.000Z,26
2023-03-02T03:09:30.000Z,26.1
2023-03-02T03:12:58.000Z,25.8
2023-03-02T03:16:26.000Z,26.2
2023-03-02T03:19:54.000Z,29.9
2023-03-02T03:23:22.000Z,31.4
2023-03-02T03:26:50.000Z,43.9
2023-03-02T03:30:18.000Z,30.2
2023-03-02T03:33:08.000Z,34.1
2023-03-02T03:36:36.000Z,32.5
2023-03-02T03:40:04.000Z,33.2
2023-03-02T03:43:32.000Z,25.8
2023-03-02T03:46:59.000Z,26.9
2023-03-02T03:50:27.000Z,27.9
2023-03-02T03:53:55.000Z,28.4
2023-03-02T03:57:23.000Z,26
2023-03-02T04:00:51.000Z,26.4
2023-03-02T04:04:19.000Z,27.1
2023-03-02T04:07:47.000Z,24.6
2023-03-02T04:10:36.000Z,23.1
2023-03-02T04:14:04.000Z,25
2023-03-02T04:17:32.000Z,25.9
2023-03-02T04:21:00.000Z,22.3
2023-03-02T04:24:28.000Z,26.3
2023-03-02T04:27:56.000Z,23.9
2023-03-02T04:31:24.000Z,25.7
2023-03-02T04:34:52.000Z,24.6
2023-03-02T04:38:20.000Z,24.1
2023-03-02T04:41:47.000Z,25.9
2023-03-02T04:45:16.000Z,26.4
2023-03-02T04:48:05.000Z,24.3
2023-03-02T04:51:32.000Z,25.1
2023-03-02T04:55:00.000Z,23.8
2023-03-02T04:58:29.000Z,24.3
2023-03-02T05:01:57.000Z,22.8
2023-03-02T05:05:25.000Z,23.3
2023-03-02T05:08:53.000Z,24
2023-03-02T05:12:21.000Z,21.2
2023-03-02T05:15:49.000Z,27
2023-03-02T05:19:17.000Z,27.9
2023-03-02T05:22:45.000Z,22.7
2023-03-02T05:25:34.000Z,20.1
2023-03-02T05:29:02.000Z,21.3
2023-03-02T05:32:30.000Z,20.8
2023-03-02T05:35:58.000Z,21.8
2023-03-02T05:39:26.000Z,22.2
2023-03-02T05:42:54.000Z,22.1
2023-03-02T05:46:22.000Z,22.3
2023-03-02T05:49:49.000Z,22.9
2023-03-02T05:53:17.000Z,24
2023-03-02T05:56:45.000Z,25.7
2023-03-02T06:00:13.000Z,22.5
2023-03-02T06:03:02.000Z,23.6
2023-03-02T06:06:30.000Z,24.9
2023-03-02T06:09:59.000Z,27.9
2023-03-02T06:13:27.000Z,23.7
2023-03-02T06:16:55.000Z,22.4
2023-03-02T06:20:23.000Z,22.3
2023-03-02T06:23:51.000Z,23.5
2023-03-02T06:27:18.000Z,30.2
2023-03-02T06:30:49.000Z,23.3
2023-03-02T06:34:17.000Z,23.7
2023-03-02T06:37:45.000Z,22.8
2023-03-02T06:44:00.000Z,27.7
2023-03-02T06:47:28.000Z,26.3
2023-03-02T06:50:56.000Z,26.1
2023-03-02T06:54:24.000Z,24.8
2023-03-02T06:57:51.000Z,28.7
2023-03-02T07:01:19.000Z,25
2023-03-02T07:04:47.000Z,25.5
2023-03-02T07:08:15.000Z,25
2023-03-02T07:11:43.000Z,20.8
2023-03-02T07:15:11.000Z,31.3
2023-03-02T07:18:39.000Z,30.1
2023-03-02T07:21:28.000Z,28.9
2023-03-02T07:24:56.000Z,32.3
2023-03-02T07:28:24.000Z,30.5
2023-03-02T07:31:52.000Z,27.5
2023-03-02T07:35:20.000Z,35.7
2023-03-02T07:38:48.000Z,31.3
2023-03-02T07:42:16.000Z,31.3
2023-03-02T07:45:43.000Z,14.7
2023-03-02T07:49:11.000Z,27.3
2023-03-02T07:52:39.000Z,29.4
2023-03-02T07:56:07.000Z,28.7
2023-03-02T07:58:57.000Z,28.9
2023-03-02T08:02:25.000Z,30.4
2023-03-02T08:05:53.000Z,26.4
2023-03-02T08:09:21.000Z,31.5
2023-03-02T08:12:49.000Z,29.9
2023-03-02T08:16:17.000Z,29.6
2023-03-02T08:19:45.000Z,28.1
2023-03-02T08:27:02.000Z,33.2
2023-03-02T08:30:34.000Z,29.9
2023-03-02T08:34:07.000Z,27.6
2023-03-02T08:37:40.000Z,31.5
2023-03-02T08:41:12.000Z,22.9
2023-03-02T08:44:45.000Z,27.6
2023-03-02T08:48:18.000Z,29.9
2023-03-02T08:51:51.000Z,28.4
2023-03-02T08:55:23.000Z,27.8
2023-03-02T08:58:56.000Z,30.3
2023-03-02T09:02:30.000Z,36.1
2023-03-02T09:05:22.000Z,32.8
2023-03-02T09:08:54.000Z,32.5
2023-03-02T09:12:27.000Z,33.4
2023-03-02T09:15:59.000Z,30.7
2023-03-02T09:19:32.000Z,30.6
2023-03-02T09:23:07.000Z,29.5
2023-03-02T09:26:40.000Z,29.6
2023-03-02T09:30:12.000Z,26.8
2023-03-02T09:33:45.000Z,29.1
2023-03-02T09:37:18.000Z,30.4
2023-03-02T09:40:51.000Z,30.4
2023-03-02T09:43:42.000Z,30.1
2023-03-02T09:47:15.000Z,33
2023-03-02T09:51:02.000Z,30.6
2023-03-02T09:54:35.000Z,33.8
2023-03-02T10:00:49.000Z,30.2
2023-03-02T10:04:22.000Z,28.1
2023-03-02T10:07:55.000Z,29
2023-03-02T10:11:28.000Z,27.1
2023-03-02T10:15:00.000Z,24
2023-03-02T10:18:34.000Z,26.2
2023-03-02T10:22:06.000Z,25.3
2023-03-02T10:25:39.000Z,26.2
2023-03-02T10:29:12.000Z,29.2
2023-03-02T10:32:45.000Z,26.8
2023-03-02T10:36:17.000Z,26.2
2023-03-02T10:39:08.000Z,27.6
2023-03-02T10:42:41.000Z,25.9
2023-03-02T10:46:14.000Z,24.2
2023-03-02T10:49:47.000Z,26.9
2023-03-02T10:53:19.000Z,29.9
2023-03-02T10:56:52.000Z,27
2023-03-02T11:00:24.000Z,26.6
2023-03-02T11:03:57.000Z,17.5
2023-03-02T11:07:30.000Z,24.9
2023-03-02T11:11:03.000Z,30.8
2023-03-02T11:14:35.000Z,26.8
2023-03-02T11:17:26.000Z,20.1
2023-03-02T11:20:59.000Z,29
2023-03-02T11:24:32.000Z,30.4
2023-03-02T11:28:04.000Z,28.1
2023-03-02T11:31:37.000Z,27.4
2023-03-02T11:35:10.000Z,28.5
2023-03-02T11:38:43.000Z,28.6
2023-03-02T11:42:16.000Z,24.3
2023-03-02T11:45:48.000Z,24.6
2023-03-02T11:49:21.000Z,24.3
2023-03-02T11:52:54.000Z,21.1
2023-03-02T11:55:45.000Z,26.9
2023-03-02T11:59:18.000Z,28.5
2023-03-02T12:02:54.000Z,29.2
2023-03-02T12:06:26.000Z,28.4
2023-03-02T12:09:59.000Z,22.2
2023-03-02T12:13:32.000Z,27.3
2023-03-02T12:17:04.000Z,25.9
2023-03-02T12:20:37.000Z,28.8
2023-03-02T12:24:10.000Z,32.8
2023-03-02T12:27:43.000Z,32.4
2023-03-02T12:31:16.000Z,27.5
2023-03-02T12:34:07.000Z,30.4
2023-03-02T12:37:40.000Z,29.7
2023-03-02T12:41:12.000Z,31.6
2023-03-02T12:44:45.000Z,28.8
2023-03-02T12:48:18.000Z,25.8
2023-03-02T12:51:51.000Z,27
2023-03-02T12:55:24.000Z,21.1
2023-03-02T12:58:57.000Z,27.5
2023-03-02T13:02:29.000Z,26.8
2023-03-02T13:06:02.000Z,27.1
2023-03-02T13:09:35.000Z,26.8
2023-03-02T13:12:40.000Z,25.6
2023-03-02T13:16:12.000Z,25.1
2023-03-02T13:19:45.000Z,21.6
2023-03-02T13:23:18.000Z,19
2023-03-02T13:26:50.000Z,18.7
2023-03-02T13:30:23.000Z,24
2023-03-02T13:33:56.000Z,24.4
2023-03-02T13:37:29.000Z,20.3
2023-03-02T13:41:01.000Z,22.2
2023-03-02T13:44:36.000Z,22.7
2023-03-02T13:48:08.000Z,17.4
2023-03-02T13:51:00.000Z,18.7
2023-03-02T13:54:33.000Z,20.6
2023-03-02T13:58:05.000Z,17.8
2023-03-02T14:01:38.000Z,17.7
2023-03-02T14:05:11.000Z,18.3
2023-03-02T14:08:44.000Z,16.6
2023-03-02T14:12:17.000Z,16.6
2023-03-02T14:15:49.000Z,16
2023-03-02T14:19:22.000Z,17.8
2023-03-02T14:22:55.000Z,43.3
2023-03-02T14:26:28.000Z,22
2023-03-02T14:29:19.000Z,19
2023-03-02T14:32:52.000Z,19.1
2023-03-02T14:36:25.000Z,16.7
2023-03-02T14:39:57.000Z,16.7
2023-03-02T14:43:39.000Z,14.8
2023-03-02T14:47:12.000Z,12.9
2023-03-02T14:50:45.000Z,14.9
2023-03-02T14:54:17.000Z,13.7
2023-03-02T14:57:50.000Z,15.5
2023-03-02T15:01:23.000Z,12.3
2023-03-02T15:04:56.000Z,13.7
2023-03-02T15:07:47.000Z,15.2
2023-03-02T15:11:23.000Z,13.4
2023-03-02T15:14:56.000Z,15.6
2023-03-02T15:18:29.000Z,11.9
2023-03-02T15:22:02.000Z,13.9
2023-03-02T15:25:35.000Z,12.5
2023-03-02T15:29:07.000Z,14
2023-03-02T15:32:40.000Z,10.6
2023-03-02T15:36:13.000Z,11.5
2023-03-02T15:39:46.000Z,10.8
2023-03-02T15:43:18.000Z,10.9
2023-03-02T15:46:09.000Z,12.1
2023-03-02T15:49:42.000Z,10.7
2023-03-02T15:53:15.000Z,12.4
2023-03-02T15:56:47.000Z,9.9
2023-03-02T16:00:20.000Z,10.7
2023-03-02T16:03:53.000Z,7.5
2023-03-02T16:07:25.000Z,9.8
2023-03-02T16:10:58.000Z,9.7
2023-03-02T16:14:31.000Z,11.3
2023-03-02T16:18:03.000Z,10.8
2023-03-02T16:21:36.000Z,11.4
2023-03-02T16:24:27.000Z,10
2023-03-02T16:28:00.000Z,10
2023-03-02T16:31:33.000Z,10.9
2023-03-02T16:35:05.000Z,10.8
2023-03-02T16:38:38.000Z,11
2023-03-02T16:42:11.000Z,9.1
2023-03-02T16:45:43.000Z,10.8
2023-03-02T16:49:16.000Z,17.5
2023-03-02T16:52:49.000Z,14.6
2023-03-02T16:56:21.000Z,13.3
2023-03-02T16:59:54.000Z,12.9
2023-03-02T17:02:45.000Z,10.2
2023-03-02T17:06:18.000Z,12.9
2023-03-02T17:09:51.000Z,13.6
2023-03-02T17:13:23.000Z,10.6
2023-03-02T17:16:56.000Z,13.1
2023-03-02T17:20:29.000Z,15.7
2023-03-02T17:24:01.000Z,10.8
2023-03-02T17:27:34.000Z,10.8
2023-03-02T17:31:07.000Z,10.5
2023-03-02T17:34:40.000Z,10.5
2023-03-02T17:38:12.000Z,11.6
2023-03-02T17:41:04.000Z,11.3
2023-03-02T17:44:38.000Z,18
2023-03-02T17:48:10.000Z,15.9
2023-03-02T17:51:43.000Z,43.7
2023-03-02T17:55:16.000Z,29.3
2023-03-02T17:58:48.000Z,13.8
2023-03-02T18:02:21.000Z,16
2023-03-02T18:05:54.000Z,14.9
2023-03-02T18:09:26.000Z,16.4
2023-03-02T18:12:59.000Z,16.2
2023-03-02T18:16:32.000Z,13.9
2023-03-02T18:19:23.000Z,14.8
2023-03-02T18:22:55.000Z,16.9
2023-03-02T18:26:28.000Z,17.7
2023-03-02T18:30:01.000Z,16.1
2023-03-02T18:33:33.000Z,15.6
2023-03-02T18:37:06.000Z,17.9
2023-03-02T18:40:39.000Z,14.8
2023-03-02T18:44:11.000Z,17.1
2023-03-02T18:47:44.000Z,16.6
2023-03-02T18:51:16.000Z,17.4
2023-03-02T18:54:49.000Z,17
2023-03-02T18:57:41.000Z,17.9
2023-03-02T19:01:13.000Z,20.8
2023-03-02T19:04:46.000Z,22.3
2023-03-02T19:08:19.000Z,23.4
2023-03-02T19:11:52.000Z,28.2
2023-03-02T19:15:24.000Z,28.5
2023-03-02T19:18:57.000Z,19.9
2023-03-02T19:22:30.000Z,35.8
2023-03-02T19:26:02.000Z,21.3
2023-03-02T19:29:35.000Z,22
2023-03-02T19:33:08.000Z,20
2023-03-02T19:35:59.000Z,22.4
2023-03-02T19:39:31.000Z,20.9
2023-03-02T19:43:04.000Z,22.2
2023-03-02T19:46:37.000Z,21.6
2023-03-02T19:50:10.000Z,22.9
2023-03-02T19:53:42.000Z,21.5
2023-03-02T19:57:15.000Z,22.9
2023-03-02T20:00:48.000Z,20.3
2023-03-02T20:04:20.000Z,21.5
2023-03-02T20:07:53.000Z,19.6
2023-03-02T20:11:26.000Z,23.1
2023-03-02T20:14:17.000Z,20.5
2023-03-02T20:17:59.000Z,23.1
2023-03-02T20:21:31.000Z,20.1
2023-03-02T20:25:04.000Z,19.8
2023-03-02T20:28:37.000Z,24.7
2023-03-02T20:32:09.000Z,24.1
2023-03-02T20:35:42.000Z,122.7
2023-03-02T20:39:15.000Z,44.2
2023-03-02T20:42:48.000Z,33.6
2023-03-02T20:46:19.000Z,37.6
2023-03-02T20:49:52.000Z,37.5
2023-03-02T20:52:41.000Z,26.5
2023-03-02T20:56:10.000Z,25.2
2023-03-02T20:59:39.000Z,26.1
2023-03-02T21:06:36.000Z,28.7
2023-03-02T21:10:05.000Z,26.6
2023-03-02T21:13:36.000Z,31.2
2023-03-02T21:17:09.000Z,27.8
2023-03-02T21:20:42.000Z,27.6
2023-03-02T21:24:12.000Z,30.7
2023-03-02T21:27:40.000Z,28.5
2023-03-02T21:31:09.000Z,26.5
2023-03-02T21:34:37.000Z,25.7
2023-03-02T21:38:05.000Z,26.3
2023-03-02T21:41:33.000Z,27.8
2023-03-02T21:44:23.000Z,31.9
2023-03-02T21:47:51.000Z,31.7
2023-03-02T21:51:18.000Z,33.4
2023-03-02T21:54:47.000Z,44.1
2023-03-02T21:58:15.000Z,38.5
2023-03-02T22:01:44.000Z,32.7
2023-03-02T22:05:12.000Z,28.8
2023-03-02T22:08:40.000Z,28.8
2023-03-02T22:12:08.000Z,32.2
2023-03-02T22:15:36.000Z,31.4
2023-03-02T22:19:04.000Z,32.2
2023-03-02T22:21:53.000Z,31.6
2023-03-02T22:25:21.000Z,31.7
2023-03-02T22:28:49.000Z,34.4
2023-03-02T22:32:17.000Z,38.2
2023-03-02T22:35:45.000Z,36.5
2023-03-02T22:39:13.000Z,46.3
2023-03-02T22:42:41.000Z,35.4
2023-03-02T22:46:09.000Z,40.6
2023-03-02T22:49:38.000Z,38.6
2023-03-02T22:53:06.000Z,40
2023-03-02T22:56:34.000Z,39.4
2023-03-02T22:59:23.000Z,37.8
2023-03-02T23:02:51.000Z,38.6
2023-03-02T23:06:19.000Z,37.8
2023-03-02T23:09:47.000Z,37.9
2023-03-02T23:13:15.000Z,33.6
2023-03-02T23:16:46.000Z,35
2023-03-02T23:20:14.000Z,40.4
2023-03-02T23:23:42.000Z,38.2
2023-03-02T23:27:10.000Z,35.4
2023-03-02T23:30:38.000Z,36
2023-03-02T23:34:06.000Z,41
2023-03-02T23:36:56.000Z,33.8
2023-03-02T23:40:24.000Z,38.6
2023-03-02T23:43:52.000Z,38.7
2023-03-02T23:47:19.000Z,38.8
2023-03-02T23:50:47.000Z,40.6
2023-03-02T23:54:15.000Z,40.9
2023-03-02T23:57:43.000Z,46.6
